Sunrise, Minnesota
Current Conditions -  °F | °C
As of 2:34 AM on Friday 24 Oct 2014 (Local Time) from KROS Reporting Station
Overcast Overcast  
Wind Chill: 45°   Ceiling: 100
Heat Index: 47°   Visibility: 7mi
Dew Point: 46°   Wind: 6mph
Humidity: 97%   Direction: 160°SSE
Pressure: 29.94"   Gusts: NA
Location:  45.5343°N, 92.8964°W
Report Text: KROS 240734Z AUTO 16005KT 7SM OVC001 09/08 A2994 RMK AO2 T00850080
Loading
Personal Weather Stations






























Interactive Weather Map
Tropical Storm Tracking
New forecast layout! Learn more

10-Day Weather Forecast

Advertisements
Track Severe Weather on mobile